• Join FlightAware (Why Join?)
  • Login
  • US Flag 
10:05AM EDT


 

Airport Tracker/Info


-or-


 

Live Flight TrackerFlight Track Log ✈ AWE1021 ✈ 24-Apr-2013 ✈ KBOS - KCLT

Flight Track Log - Related Links

Times and Time Zones

All times are in EDT time to prevent confusion due to time zone crossing. See the AWE1021 flight status page for this flight to view local times or setup timezone preferences in your user account.

Time Position Orientation Groundspeed Altitude Reporting Facility
EDT Latitude Longitude Course Direction KTS MPH feet Rate Location/Type
08:53AM 42.3110 -71.0910 218° Southwest 247 284 2,800  Level FlightAware
08:53AM 42.2890 -71.1130 216° Southwest 249 287 3,900 2,100 Climbing FlightAware
08:53AM 42.2730 -71.1390 230° Southwest 263 303 4,400 2,100 Climbing FlightAware
08:54AM 42.2610 -71.1740 245° Southwest 268 308 5,500 2,700 Climbing FlightAware
08:54AM 42.2460 -71.2210 247° West 272 313 6,900 2,700 Climbing FlightAware
08:55AM 42.2330 -71.2620 247° West 275 316 8,000 2,400 Climbing FlightAware
08:55AM 42.2190 -71.3130 250° West 283 326 9,100 2,100 Climbing FlightAware
08:56AM 42.2060 -71.3820 256° West 295 339 10,500 1,440 Climbing FlightAware
08:57AM 42.1890 -71.4690 255° West 343 395 11,200 1,080 Climbing FlightAware
08:57AM 42.1710 -71.5560 254° West 372 428 12,100 1,620 Climbing FlightAware
08:58AM 42.1530 -71.6460 255° West 384 442 13,400 2,100 Climbing FlightAware
08:59AM 42.1350 -71.7380 255° West 387 445 14,900 2,100 Climbing FlightAware
09:00AM 42.1020 -71.9050 255° West 392 451 17,500 1,980 Climbing FlightAware
09:00AM 42.0810 -72.0080 255° West 401 461 18,800 1,920 Climbing FlightAware
09:01AM 42.0580 -72.1180 254° West 397 457 20,300 1,800 Climbing FlightAware
09:02AM 42.0180 -72.2080 239° Southwest 411 473 21,400 1,440 Climbing FlightAware
09:02AM 41.9790 -72.2820 235° Southwest 426 490 22,100 900 Climbing FlightAware
09:03AM 41.9320 -72.3720 235° Southwest 432 497 22,600 1,260 Climbing FlightAware
09:04AM 41.8810 -72.4680 235° Southwest 444 511 23,900 1,200 Climbing FlightAware
09:05AM 41.8270 -72.5700 235° Southwest 446 513 24,400 720 Climbing FlightAware
09:05AM 41.7840 -72.6500 234° Southwest 447 514 25,000 420 Climbing FlightAware
09:06AM 41.7430 -72.7260 234° Southwest 447 514 25,000 1,980 Level FlightAware
09:07AM 41.7420 -72.7290 246° West 447 514 27,500 2,760 Climbing FlightAware
09:08AM 41.6030 -72.9890 234° Southwest 445 512 29,400 1,440 Climbing FlightAware
09:09AM 41.5349 -73.1143 234° Southwest 452 520 30,300 1,020 Climbing FlightAware ADS-B
09:09AM 41.4950 -73.1877 234° Southwest 452 520 30,900 1,020 Climbing FlightAware ADS-B
09:10AM 41.4556 -73.2607 234° Southwest 454 522 31,400 1,080 Climbing FlightAware ADS-B
09:10AM 41.4019 -73.3590 234° Southwest 453 521 32,300 1,200 Climbing FlightAware ADS-B
09:11AM 41.3650 -73.4266 234° Southwest 451 519 32,900 1,140 Climbing FlightAware ADS-B
09:11AM 41.3178 -73.5125 234° Southwest 449 517 33,600 900 Climbing FlightAware ADS-B
09:12AM 41.2784 -73.5843 234° Southwest 450 518 34,000 300 Climbing FlightAware ADS-B
09:13AM 41.2332 -73.6614 232° Southwest 448 516 34,000  Level FlightAware ADS-B
09:13AM 41.1896 -73.7344 232° Southwest 459 528 34,000  Level FlightAware ADS-B
09:14AM 41.1417 -73.8150 232° Southwest 464 534 34,000  Level FlightAware ADS-B
09:14AM 41.0968 -73.8902 232° Southwest 459 528 34,000  Level FlightAware ADS-B
09:15AM 41.0557 -73.9591 232° Southwest 458 527 34,000  Level FlightAware ADS-B
09:15AM 41.0537 -73.9626 233° Southwest 458 527 34,000  Level FlightAware ADS-B
09:15AM 41.0121 -74.0320 232° Southwest 456 525 34,000  Level FlightAware ADS-B
09:16AM 41.0004 -74.0517 232° Southwest 456 525 34,000  Level FlightAware ADS-B
09:16AM 40.9688 -74.1043 232° Southwest 455 524 34,000  Level FlightAware ADS-B
09:16AM 40.9609 -74.1176 232° Southwest 454 522 34,000  Level FlightAware ADS-B
09:17AM 40.9247 -74.1777 231° Southwest 454 522 34,000  Level FlightAware ADS-B
09:17AM 40.9091 -74.2036 231° Southwest 454 522 34,000  Level FlightAware ADS-B
09:17AM 40.8845 -74.2446 232° Southwest 454 522 34,000  Level FlightAware ADS-B
09:18AM 40.8450 -74.3103 232° Southwest 454 522 34,000  Level FlightAware ADS-B
09:18AM 40.8036 -74.3788 231° Southwest 453 521 34,000  Level FlightAware ADS-B
09:19AM 40.7663 -74.4406 231° Southwest 453 521 34,000  Level FlightAware ADS-B
09:19AM 40.7199 -74.5169 231° Southwest 452 520 34,000  Level FlightAware ADS-B
09:20AM 40.6793 -74.5838 231° Southwest 450 518 34,000  Level FlightAware ADS-B
09:20AM 40.6400 -74.6481 231° Southwest 450 518 34,000  Level FlightAware ADS-B
09:21AM 40.6002 -74.7133 231° Southwest 450 518 34,000  Level FlightAware ADS-B
09:21AM 40.5568 -74.7784 229° Southwest 450 518 34,000  Level FlightAware ADS-B
09:22AM 40.5138 -74.8393 227° Southwest 450 518 34,000  Level FlightAware ADS-B
09:22AM 40.4714 -74.8994 227° Southwest 449 517 34,000  Level FlightAware ADS-B
09:23AM 40.4285 -74.9598 227° Southwest 446 513 34,000  Level FlightAware ADS-B
09:23AM 40.3797 -75.0284 227° Southwest 434 499 34,000  Level FlightAware ADS-B
09:24AM 40.3371 -75.0879 227° Southwest 425 489 34,000  Level FlightAware ADS-B
09:24AM 40.2964 -75.1451 227° Southwest 427 491 34,000  Level FlightAware ADS-B
09:25AM 40.2558 -75.2020 227° Southwest 429 494 34,000  Level FlightAware ADS-B
09:25AM 40.2142 -75.2602 227° Southwest 429 494 34,000  Level FlightAware ADS-B
09:26AM 40.1733 -75.3173 227° Southwest 429 494 34,000  Level FlightAware ADS-B
09:26AM 40.1313 -75.3757 227° Southwest 429 494 34,000  Level FlightAware ADS-B
09:27AM 40.0876 -75.4363 227° Southwest 429 494 34,000  Level FlightAware ADS-B
09:27AM 40.0452 -75.4951 227° Southwest 429 494 34,000  Level FlightAware ADS-B
09:28AM 40.0036 -75.5524 227° Southwest 429 494 34,000  Level FlightAware ADS-B
09:28AM 39.9615 -75.6106 227° Southwest 429 494 34,000  Level FlightAware ADS-B
09:29AM 39.9205 -75.6677 227° Southwest 428 493 34,000  Level FlightAware ADS-B
09:29AM 39.9018 -75.6965 230° Southwest 427 491 34,000  Level FlightAware ADS-B
09:30AM 39.8417 -75.7927 231° Southwest 427 491 34,000  Level FlightAware ADS-B
09:30AM 39.8036 -75.8534 231° Southwest 427 491 34,000  Level FlightAware ADS-B
09:31AM 39.7583 -75.9256 231° Southwest 425 489 34,000  Level FlightAware ADS-B
09:32AM 39.7189 -75.9883 231° Southwest 424 488 34,000  Level FlightAware ADS-B
09:32AM 39.6813 -76.0479 231° Southwest 424 488 34,000  Level FlightAware ADS-B
09:33AM 39.6441 -76.1067 231° Southwest 423 487 34,000  Level FlightAware ADS-B
09:33AM 39.6054 -76.1677 231° Southwest 423 487 34,000  Level FlightAware ADS-B
09:34AM 39.5596 -76.2386 230° Southwest 422 486 34,000  Level FlightAware ADS-B
09:34AM 39.5209 -76.2980 230° Southwest 422 486 34,000  Level FlightAware ADS-B
09:35AM 39.4832 -76.3559 230° Southwest 422 486 34,000  Level FlightAware ADS-B
09:35AM 39.4442 -76.4162 230° Southwest 421 484 34,000  Level FlightAware ADS-B
09:36AM 39.4071 -76.4748 231° Southwest 421 484 34,000  Level FlightAware ADS-B
09:36AM 39.3691 -76.5349 231° Southwest 420 483 34,000  Level FlightAware ADS-B
09:37AM 39.3281 -76.5994 231° Southwest 421 484 34,000  Level FlightAware ADS-B
09:37AM 39.2845 -76.6677 230° Southwest 421 484 34,000  Level FlightAware ADS-B
09:38AM 39.2454 -76.7288 230° Southwest 422 486 34,000  Level FlightAware ADS-B
09:38AM 39.2073 -76.7884 230° Southwest 423 487 34,000  Level FlightAware ADS-B
09:39AM 39.1655 -76.8537 230° Southwest 424 488 34,000  Level FlightAware ADS-B
09:40AM 39.1265 -76.9143 230° Southwest 425 489 34,000  Level FlightAware ADS-B
09:40AM 39.0881 -76.9739 230° Southwest 424 488 34,000  Level FlightAware ADS-B
09:40AM 39.0578 -77.0187 229° Southwest 425 489 34,000  Level FlightAware ADS-B
09:41AM 39.0234 -77.0612 224° Southwest 427 491 34,000  Level FlightAware ADS-B
09:41AM 38.9777 -77.1115 221° Southwest 428 493 34,000  Level FlightAware ADS-B
09:42AM 38.9280 -77.1662 221° Southwest 427 491 34,000  Level FlightAware ADS-B
09:42AM 38.8782 -77.2208 220° Southwest 428 493 34,000  Level FlightAware ADS-B
09:43AM 38.8327 -77.2707 221° Southwest 427 491 34,000  Level FlightAware ADS-B
09:43AM 38.7871 -77.3207 221° Southwest 427 491 34,000  Level FlightAware ADS-B
09:44AM 38.7245 -77.3890 220° Southwest 427 491 34,000  Level FlightAware ADS-B
09:45AM 38.6716 -77.4465 220° Southwest 427 491 34,000  Level FlightAware ADS-B
09:46AM 38.5851 -77.5404 220° Southwest 426 490 34,000  Level FlightAware ADS-B
09:46AM 38.5396 -77.5896 220° Southwest 426 490 34,000  Level FlightAware ADS-B
09:47AM 38.4911 -77.6419 220° Southwest 427 491 34,000  Level FlightAware ADS-B
09:47AM 38.4407 -77.6963 220° Southwest 429 494 34,000  Level FlightAware ADS-B
09:48AM 38.3874 -77.7537 220° Southwest 430 495 34,000  Level FlightAware ADS-B
09:48AM 38.3381 -77.8066 220° Southwest 430 495 34,000  Level FlightAware ADS-B
09:49AM 38.2917 -77.8565 220° Southwest 431 496 34,000  Level FlightAware ADS-B
09:50AM 38.2091 -77.9448 220° Southwest 432 497 34,000 60 Level FlightAware ADS-B
09:50AM 38.1569 -78.0005 220° Southwest 429 494 34,100  Climbing FlightAware ADS-B
09:51AM 38.0790 -78.0830 220° Southwest 428 493 34,000 -120 Descending FlightAware
09:52AM 38.0270 -78.1400 221° Southwest 424 488 34,000  Level FlightAware
09:53AM 37.9720 -78.2130 226° Southwest 418 481 34,000  Level FlightAware
09:54AM 37.9050 -78.3110 229° Southwest 416 479 34,000  Level FlightAware
09:54AM 37.8410 -78.4020 228° Southwest 415 478 34,000  Level FlightAware
09:55AM 37.7830 -78.4850 229° Southwest 414 476 34,000  Level FlightAware
09:56AM 37.7280 -78.5620 228° Southwest 414 476 34,000  Level FlightAware
09:57AM 37.6850 -78.6230 228° Southwest 414 476 34,000  Level FlightAware
09:57AM 37.6150 -78.7260 229° Southwest 413 475 34,000  Level FlightAware
09:58AM 37.5710 -78.7870 228° Southwest 413 475 34,000  Level FlightAware
09:59AM 37.5050 -78.8820 229° Southwest 412 474 34,000  Level FlightAware
10:00AM 37.4460 -78.9660 229° Southwest 412 474 34,000  Level FlightAware
10:00AM 37.4070 -79.0210 228° Southwest 412 474 34,000  Level FlightAware
10:01AM 37.3530 -79.0960 228° Southwest 412 474 34,000  Level FlightAware
10:02AM 37.3090 -79.1570 228° Southwest 412 474 34,000  Level FlightAware
10:02AM 37.2660 -79.2170 228° Southwest 412 474 34,000  Level FlightAware
10:03AM 37.2230 -79.2780 228° Southwest 412 474 34,000  Level FlightAware
10:04AM 37.1690 -79.3530 228° Southwest 412 474 34,000  Level FlightAware
10:04AM 37.1250 -79.4140 228° Southwest 412 474 34,000  Level FlightAware
10:05AM 37.0820 -79.4740 228° Southwest 412 474 34,000  Level FlightAware
10:06AM 37.0380 -79.5350 228° Southwest 412 474 34,000  Level FlightAware
10:06AM 36.9950 -79.5950 228° Southwest 412 474 34,000  Level FlightAware
10:07AM 36.9410 -79.6700 228° Southwest 412 474 34,000  Level FlightAware
10:08AM 36.8970 -79.7310 228° Southwest 412 474 34,000  Level FlightAware
10:09AM 36.8540 -79.7910 228° Southwest 412 474 34,000  Level FlightAware
10:09AM 36.8110 -79.8510 228° Southwest 412 474 34,000 -8,100 Level FlightAware
10:10AM 36.5042 -79.8522 228° Southwest 438 504 26,200 -7,740 Descending Atlanta Center
10:11AM 36.4064 -79.9269 212° Southwest 424 488 24,000 -2,100 Descending Atlanta Center
10:12AM 36.3153 -80.0011 213° Southwest 411 473 22,100 -1,080 Descending Atlanta Center
10:13AM 36.2319 -80.0722 215° Southwest 391 450 21,900 -900 Descending Atlanta Center
10:14AM 36.1528 -80.1403 215° Southwest 344 396 20,400 -1,740 Descending Atlanta Center
10:15AM 36.0839 -80.2003 215° Southwest 327 376 18,500 -1,560 Descending Atlanta Center
10:16AM 36.0106 -80.2628 215° Southwest 322 371 17,300 -1,380 Descending Atlanta Center
10:17AM 35.9350 -80.3097 207° Southwest 317 365 15,800 -1,500 Descending Atlanta Center
10:18AM 35.8503 -80.3367 194° South 296 341 14,200 -1,440 Descending Atlanta Center
10:19AM 35.8078 -80.3872 224° Southwest 261 300 13,000 -1,380 Descending Atlanta Center
10:20AM 35.7747 -80.4683 243° Southwest 250 288 11,600 -1,020 Descending Atlanta Center
10:21AM 35.7094 -80.5197 213° Southwest 270 311 11,000 -960 Descending Atlanta Center
10:22AM 35.6847 -80.6000 249° West 266 306 9,700 -1,200 Descending Atlanta Center
10:23AM 35.6639 -80.6825 253° West 258 297 8,700 -900 Descending Atlanta Center
10:24AM 35.6364 -80.7450 242° Southwest 229 264 8,000 -360 Descending Atlanta Center
10:25AM 35.6861 -80.8044 316° Northwest 187 215 8,000  Level Atlanta Center
10:26AM 35.6858 -80.8786 270° West 201 231 8,000  Level Atlanta Center
10:26AM 35.6864 -80.9017 272° West 210 242 8,000  Level Atlanta Center
10:27AM 35.6814 -80.9503 263° West 212 244 8,000  Level Atlanta Center
10:27AM 35.6633 -80.9714 224° Southwest 213 245 8,000  Level Atlanta Center
10:28AM 35.6136 -80.9886 196° South 192 221 8,000 -360 Level Atlanta Center
10:29AM 35.5656 -80.9853 177° South 184 212 7,400 -720 Descending Atlanta Center
10:30AM 35.5175 -80.9819 177° South 184 212 6,700 -1,080 Descending Atlanta Center
10:31AM 35.4694 -80.9761 174° South 177 204 5,400 -1,080 Descending Atlanta Center
10:32AM 35.4150 -80.9731 177° South 177 204 4,400 -900 Descending Atlanta Center